sensor_id;sensor_type;location;lat;lon;timestamp;pressure;altitude;pressure_sealevel;temperature;humidity
3122;BME280;1571;52.524;14.104;2023-04-21T00:01:52;101488.09;;;8.64;98.82
3122;BME280;1571;52.524;14.104;2023-04-21T00:04:21;101495.72;;;8.72;99.00
3122;BME280;1571;52.524;14.104;2023-04-21T00:06:50;101484.47;;;8.67;99.04
3122;BME280;1571;52.524;14.104;2023-04-21T00:09:19;101491.25;;;8.74;98.84
3122;BME280;1571;52.524;14.104;2023-04-21T00:11:47;101490.84;;;8.63;99.21
3122;BME280;1571;52.524;14.104;2023-04-21T00:14:15;101485.41;;;8.66;99.28
3122;BME280;1571;52.524;14.104;2023-04-21T00:16:45;101484.56;;;8.43;99.45
3122;BME280;1571;52.524;14.104;2023-04-21T00:19:18;101490.69;;;8.66;99.77
3122;BME280;1571;52.524;14.104;2023-04-21T00:21:47;101488.47;;;8.33;99.75
3122;BME280;1571;52.524;14.104;2023-04-21T00:24:15;101487.03;;;8.48;99.81
3122;BME280;1571;52.524;14.104;2023-04-21T00:26:43;101475.22;;;8.77;99.35
3122;BME280;1571;52.524;14.104;2023-04-21T00:29:11;101485.94;;;8.74;98.45
3122;BME280;1571;52.524;14.104;2023-04-21T00:31:39;101480.84;;;8.69;98.36
3122;BME280;1571;52.524;14.104;2023-04-21T00:34:09;101484.34;;;8.70;98.25
3122;BME280;1571;52.524;14.104;2023-04-21T00:36:37;101487.44;;;8.59;98.43
3122;BME280;1571;52.524;14.104;2023-04-21T00:39:05;101481.09;;;8.63;98.39
3122;BME280;1571;52.524;14.104;2023-04-21T00:41:35;101492.03;;;8.76;97.92
3122;BME280;1571;52.524;14.104;2023-04-21T00:44:06;101477.72;;;8.60;98.03
3122;BME280;1571;52.524;14.104;2023-04-21T00:46:36;101480.31;;;8.82;97.51
3122;BME280;1571;52.524;14.104;2023-04-21T00:49:06;101476.84;;;8.80;96.90
3122;BME280;1571;52.524;14.104;2023-04-21T00:51:36;101477.72;;;8.80;96.23
3122;BME280;1571;52.524;14.104;2023-04-21T00:54:05;101482.44;;;8.94;95.54
3122;BME280;1571;52.524;14.104;2023-04-21T00:56:34;101475.59;;;8.88;95.23
3122;BME280;1571;52.524;14.104;2023-04-21T00:59:03;101474.75;;;8.88;95.03
3122;BME280;1571;52.524;14.104;2023-04-21T01:01:31;101472.91;;;8.90;94.84
3122;BME280;1571;52.524;14.104;2023-04-21T01:04:03;101477.19;;;8.92;94.67
3122;BME280;1571;52.524;14.104;2023-04-21T01:06:32;101477.84;;;8.77;94.99
3122;BME280;1571;52.524;14.104;2023-04-21T01:09:04;101476.59;;;8.86;95.15
3122;BME280;1571;52.524;14.104;2023-04-21T01:11:32;101486.78;;;8.74;95.13
3122;BME280;1571;52.524;14.104;2023-04-21T01:14:00;101488.69;;;8.71;95.18
3122;BME280;1571;52.524;14.104;2023-04-21T01:16:28;101483.16;;;8.77;94.93
3122;BME280;1571;52.524;14.104;2023-04-21T01:18:59;101479.97;;;8.69;94.97
3122;BME280;1571;52.524;14.104;2023-04-21T01:21:27;101470.38;;;8.66;95.51
3122;BME280;1571;52.524;14.104;2023-04-21T01:24:01;101474.06;;;8.62;95.48
3122;BME280;1571;52.524;14.104;2023-04-21T01:26:30;101476.38;;;8.27;96.25
3122;BME280;1571;52.524;14.104;2023-04-21T01:28:58;101467.47;;;8.30;96.75
3122;BME280;1571;52.524;14.104;2023-04-21T01:31:26;101475.09;;;8.16;97.57
3122;BME280;1571;52.524;14.104;2023-04-21T01:33:54;101470.53;;;7.75;98.33
3122;BME280;1571;52.524;14.104;2023-04-21T01:36:22;101466.53;;;7.65;99.72
3122;BME280;1571;52.524;14.104;2023-04-21T01:38:51;101468.78;;;7.52;100.00
3122;BME280;1571;52.524;14.104;2023-04-21T01:41:23;101471.59;;;7.24;100.00
3122;BME280;1571;52.524;14.104;2023-04-21T01:43:53;101471.28;;;7.08;100.00
3122;BME280;1571;52.524;14.104;2023-04-21T01:46:23;101471.97;;;6.90;100.00
3122;BME280;1571;52.524;14.104;2023-04-21T01:48:51;101473.94;;;6.83;100.00
3122;BME280;1571;52.524;14.104;2023-04-21T01:51:20;101480.59;;;6.93;100.00
3122;BME280;1571;52.524;14.104;2023-04-21T01:53:48;101479.59;;;6.72;100.00
3122;BME280;1571;52.524;14.104;2023-04-21T01:56:16;101469.31;;;6.64;100.00
3122;BME280;1571;52.524;14.104;2023-04-21T01:58:46;101468.66;;;6.58;100.00
3122;BME280;1571;52.524;14.104;2023-04-21T02:01:14;101478.81;;;6.43;100.00
3122;BME280;1571;52.524;14.104;2023-04-21T02:03:42;101470.03;;;6.43;100.00
3122;BME280;1571;52.524;14.104;2023-04-21T02:06:13;101462.72;;;6.51;100.00
3122;BME280;1571;52.524;14.104;2023-04-21T02:08:43;101458.69;;;6.66;100.00
3122;BME280;1571;52.524;14.104;2023-04-21T02:11:11;101472.03;;;6.61;100.00
3122;BME280;1571;52.524;14.104;2023-04-21T02:13:40;101469.88;;;6.47;100.00
3122;BME280;1571;52.524;14.104;2023-04-21T02:16:09;101475.78;;;6.56;100.00
3122;BME280;1571;52.524;14.104;2023-04-21T02:18:40;101469.41;;;6.61;100.00
3122;BME280;1571;52.524;14.104;2023-04-21T02:21:10;101462.97;;;6.43;100.00
3122;BME280;1571;52.524;14.104;2023-04-21T02:23:39;101464.09;;;6.36;100.00
3122;BME280;1571;52.524;14.104;2023-04-21T02:26:07;101465.84;;;6.37;100.00
3122;BME280;1571;52.524;14.104;2023-04-21T02:28:36;101467.97;;;5.98;100.00
3122;BME280;1571;52.524;14.104;2023-04-21T02:31:04;101469.47;;;6.07;100.00
3122;BME280;1571;52.524;14.104;2023-04-21T02:33:35;101477.38;;;6.07;100.00
3122;BME280;1571;52.524;14.104;2023-04-21T02:36:04;101470.88;;;6.17;100.00
3122;BME280;1571;52.524;14.104;2023-04-21T02:38:32;101472.28;;;6.00;100.00
3122;BME280;1571;52.524;14.104;2023-04-21T02:41:00;101469.28;;;6.13;100.00
3122;BME280;1571;52.524;14.104;2023-04-21T02:43:29;101465.75;;;6.12;100.00
3122;BME280;1571;52.524;14.104;2023-04-21T02:45:57;101471.03;;;6.12;100.00
3122;BME280;1571;52.524;14.104;2023-04-21T02:48:25;101471.69;;;6.19;100.00
3122;BME280;1571;52.524;14.104;2023-04-21T02:50:55;101468.34;;;6.14;100.00
3122;BME280;1571;52.524;14.104;2023-04-21T02:53:23;101469.03;;;5.92;100.00
3122;BME280;1571;52.524;14.104;2023-04-21T02:55:52;101475.56;;;6.09;100.00
3122;BME280;1571;52.524;14.104;2023-04-21T02:58:20;101465.34;;;6.26;100.00
3122;BME280;1571;52.524;14.104;2023-04-21T03:00:49;101464.53;;;6.24;100.00
3122;BME280;1571;52.524;14.104;2023-04-21T03:03:17;101462.88;;;6.20;100.00
3122;BME280;1571;52.524;14.104;2023-04-21T03:05:46;101458.13;;;6.58;100.00
3122;BME280;1571;52.524;14.104;2023-04-21T03:08:16;101461.56;;;6.60;100.00
3122;BME280;1571;52.524;14.104;2023-04-21T03:10:44;101448.88;;;6.95;100.00
3122;BME280;1571;52.524;14.104;2023-04-21T03:13:13;101446.09;;;6.99;100.00
3122;BME280;1571;52.524;14.104;2023-04-21T03:15:41;101440.75;;;7.01;100.00
3122;BME280;1571;52.524;14.104;2023-04-21T03:18:09;101438.00;;;7.04;100.00
3122;BME280;1571;52.524;14.104;2023-04-21T03:20:37;101431.69;;;7.08;100.00
3122;BME280;1571;52.524;14.104;2023-04-21T03:23:06;101438.97;;;7.25;100.00
3122;BME280;1571;52.524;14.104;2023-04-21T03:25:37;101440.88;;;7.21;100.00
3122;BME280;1571;52.524;14.104;2023-04-21T03:28:05;101433.84;;;7.20;100.00
3122;BME280;1571;52.524;14.104;2023-04-21T03:30:33;101437.94;;;7.05;100.00
3122;BME280;1571;52.524;14.104;2023-04-21T03:33:01;101444.28;;;7.00;100.00
3122;BME280;1571;52.524;14.104;2023-04-21T03:35:32;101434.50;;;7.27;100.00
3122;BME280;1571;52.524;14.104;2023-04-21T03:38:01;101434.44;;;7.05;99.64
3122;BME280;1571;52.524;14.104;2023-04-21T03:40:30;101433.09;;;7.18;99.32
3122;BME280;1571;52.524;14.104;2023-04-21T03:42:59;101432.09;;;7.21;99.21
3122;BME280;1571;52.524;14.104;2023-04-21T03:45:28;101429.38;;;7.22;98.70
3122;BME280;1571;52.524;14.104;2023-04-21T03:47:58;101433.41;;;7.09;98.43
3122;BME280;1571;52.524;14.104;2023-04-21T03:50:26;101440.53;;;7.07;98.45
3122;BME280;1571;52.524;14.104;2023-04-21T03:52:55;101432.44;;;7.12;98.48
3122;BME280;1571;52.524;14.104;2023-04-21T03:55:23;101433.41;;;7.09;97.75
3122;BME280;1571;52.524;14.104;2023-04-21T03:57:51;101437.72;;;7.12;97.56
3122;BME280;1571;52.524;14.104;2023-04-21T04:00:21;101436.50;;;7.20;97.58
3122;BME280;1571;52.524;14.104;2023-04-21T04:02:49;101450.22;;;7.06;97.44
3122;BME280;1571;52.524;14.104;2023-04-21T04:05:17;101453.06;;;7.25;97.29
3122;BME280;1571;52.524;14.104;2023-04-21T04:07:45;101449.19;;;7.11;97.13
3122;BME280;1571;52.524;14.104;2023-04-21T04:10:14;101461.94;;;7.46;96.65
3122;BME280;1571;52.524;14.104;2023-04-21T04:12:42;101455.72;;;7.47;95.56
3122;BME280;1571;52.524;14.104;2023-04-21T04:15:10;101454.41;;;7.36;94.99
3122;BME280;1571;52.524;14.104;2023-04-21T04:17:40;101463.50;;;7.52;94.70
3122;BME280;1571;52.524;14.104;2023-04-21T04:20:08;101460.09;;;7.48;94.56
3122;BME280;1571;52.524;14.104;2023-04-21T04:22:36;101464.06;;;7.60;94.05
3122;BME280;1571;52.524;14.104;2023-04-21T04:25:05;101459.00;;;7.54;93.67
3122;BME280;1571;52.524;14.104;2023-04-21T04:27:33;101462.63;;;7.51;93.43
3122;BME280;1571;52.524;14.104;2023-04-21T04:30:01;101459.44;;;7.65;93.43
3122;BME280;1571;52.524;14.104;2023-04-21T04:32:30;101458.41;;;7.69;92.94
3122;BME280;1571;52.524;14.104;2023-04-21T04:35:00;101458.50;;;7.68;92.41
3122;BME280;1571;52.524;14.104;2023-04-21T04:37:28;101459.34;;;7.68;92.25
3122;BME280;1571;52.524;14.104;2023-04-21T04:39:57;101461.19;;;7.66;92.36
3122;BME280;1571;52.524;14.104;2023-04-21T04:42:26;101459.88;;;7.77;92.03
3122;BME280;1571;52.524;14.104;2023-04-21T04:44:54;101467.34;;;7.89;91.71
3122;BME280;1571;52.524;14.104;2023-04-21T04:47:23;101463.41;;;7.99;91.32
3122;BME280;1571;52.524;14.104;2023-04-21T04:49:51;101472.38;;;8.17;90.44
3122;BME280;1571;52.524;14.104;2023-04-21T04:52:21;101464.38;;;8.19;89.96
3122;BME280;1571;52.524;14.104;2023-04-21T04:54:49;101471.41;;;8.20;89.76
3122;BME280;1571;52.524;14.104;2023-04-21T04:57:17;101471.09;;;8.05;89.70
3122;BME280;1571;52.524;14.104;2023-04-21T04:59:45;101476.56;;;8.23;89.36
3122;BME280;1571;52.524;14.104;2023-04-21T05:02:13;101471.53;;;8.17;88.92
3122;BME280;1571;52.524;14.104;2023-04-21T05:04:42;101478.97;;;8.29;88.88
3122;BME280;1571;52.524;14.104;2023-04-21T05:07:11;101470.91;;;8.32;88.73
3122;BME280;1571;52.524;14.104;2023-04-21T05:09:40;101477.38;;;8.25;88.33
3122;BME280;1571;52.524;14.104;2023-04-21T05:12:08;101478.69;;;8.35;88.32
3122;BME280;1571;52.524;14.104;2023-04-21T05:14:37;101478.25;;;8.47;88.01
3122;BME280;1571;52.524;14.104;2023-04-21T05:17:05;101476.81;;;8.39;87.78
3122;BME280;1571;52.524;14.104;2023-04-21T05:19:34;101470.41;;;8.44;87.88
3122;BME280;1571;52.524;14.104;2023-04-21T05:22:02;101480.22;;;8.42;87.49
3122;BME280;1571;52.524;14.104;2023-04-21T05:24:32;101475.59;;;8.47;87.77
3122;BME280;1571;52.524;14.104;2023-04-21T05:27:02;101478.13;;;8.71;87.68
3122;BME280;1571;52.524;14.104;2023-04-21T05:29:30;101476.59;;;8.86;87.38
3122;BME280;1571;52.524;14.104;2023-04-21T05:32:00;101479.19;;;8.87;86.61
3122;BME280;1571;52.524;14.104;2023-04-21T05:34:28;101487.00;;;8.90;86.46
3122;BME280;1571;52.524;14.104;2023-04-21T05:36:57;101483.94;;;8.79;86.66
3122;BME280;1571;52.524;14.104;2023-04-21T05:39:26;101472.22;;;9.05;86.57
3122;BME280;1571;52.524;14.104;2023-04-21T05:41:54;101480.22;;;9.04;87.01
3122;BME280;1571;52.524;14.104;2023-04-21T05:44:24;101475.53;;;9.29;85.89
3122;BME280;1571;52.524;14.104;2023-04-21T05:46:52;101479.41;;;9.22;86.24
3122;BME280;1571;52.524;14.104;2023-04-21T05:49:20;101467.53;;;9.50;86.16
3122;BME280;1571;52.524;14.104;2023-04-21T05:51:48;101468.78;;;9.62;85.02
3122;BME280;1571;52.524;14.104;2023-04-21T05:54:17;101462.03;;;9.54;84.97
3122;BME280;1571;52.524;14.104;2023-04-21T05:56:45;101459.94;;;9.61;84.59
3122;BME280;1571;52.524;14.104;2023-04-21T05:59:14;101470.97;;;9.52;84.81
3122;BME280;1571;52.524;14.104;2023-04-21T06:01:44;101471.56;;;9.58;84.33
3122;BME280;1571;52.524;14.104;2023-04-21T06:04:12;101474.84;;;9.83;84.32
3122;BME280;1571;52.524;14.104;2023-04-21T06:06:41;101468.47;;;9.87;84.17
3122;BME280;1571;52.524;14.104;2023-04-21T06:09:10;101468.94;;;9.95;83.49
3122;BME280;1571;52.524;14.104;2023-04-21T06:11:41;101463.53;;;10.15;83.02
3122;BME280;1571;52.524;14.104;2023-04-21T06:14:09;101469.56;;;10.19;82.59
3122;BME280;1571;52.524;14.104;2023-04-21T06:16:38;101475.38;;;10.08;82.30
3122;BME280;1571;52.524;14.104;2023-04-21T06:19:07;101475.34;;;10.27;82.73
3122;BME280;1571;52.524;14.104;2023-04-21T06:21:35;101466.66;;;10.60;82.34
3122;BME280;1571;52.524;14.104;2023-04-21T06:24:04;101469.09;;;10.47;81.83
3122;BME280;1571;52.524;14.104;2023-04-21T06:26:32;101460.28;;;10.28;81.67
3122;BME280;1571;52.524;14.104;2023-04-21T06:29:00;101456.56;;;10.67;81.39
3122;BME280;1571;52.524;14.104;2023-04-21T06:31:28;101469.72;;;10.52;81.86
3122;BME280;1571;52.524;14.104;2023-04-21T06:33:57;101456.97;;;10.59;81.14
3122;BME280;1571;52.524;14.104;2023-04-21T06:36:26;101455.00;;;10.80;80.91
3122;BME280;1571;52.524;14.104;2023-04-21T06:38:54;101454.22;;;10.78;80.39
3122;BME280;1571;52.524;14.104;2023-04-21T06:41:23;101453.44;;;10.76;80.15
3122;BME280;1571;52.524;14.104;2023-04-21T06:43:51;101450.59;;;10.96;80.32
3122;BME280;1571;52.524;14.104;2023-04-21T06:46:19;101458.47;;;11.15;79.81
3122;BME280;1571;52.524;14.104;2023-04-21T06:48:47;101451.94;;;11.21;79.50
3122;BME280;1571;52.524;14.104;2023-04-21T06:51:16;101453.78;;;11.03;79.86
3122;BME280;1571;52.524;14.104;2023-04-21T06:53:45;101450.41;;;11.17;79.06
3122;BME280;1571;52.524;14.104;2023-04-21T06:56:13;101457.22;;;11.38;79.34
3122;BME280;1571;52.524;14.104;2023-04-21T06:58:41;101454.81;;;11.00;79.05
3122;BME280;1571;52.524;14.104;2023-04-21T07:01:09;101450.06;;;11.23;79.43
3122;BME280;1571;52.524;14.104;2023-04-21T07:03:38;101444.34;;;10.97;79.14
3122;BME280;1571;52.524;14.104;2023-04-21T07:06:07;101450.31;;;11.18;79.20
3122;BME280;1571;52.524;14.104;2023-04-21T07:08:35;101444.00;;;11.53;78.72
3122;BME280;1571;52.524;14.104;2023-04-21T07:11:05;101437.78;;;11.54;77.68
3122;BME280;1571;52.524;14.104;2023-04-21T07:13:33;101436.75;;;11.72;78.10
3122;BME280;1571;52.524;14.104;2023-04-21T07:16:02;101444.00;;;11.37;76.86
3122;BME280;1571;52.524;14.104;2023-04-21T07:18:30;101443.75;;;11.41;77.69
3122;BME280;1571;52.524;14.104;2023-04-21T07:20:58;101438.09;;;11.79;77.32
3122;BME280;1571;52.524;14.104;2023-04-21T07:23:26;101440.97;;;11.92;77.13
3122;BME280;1571;52.524;14.104;2023-04-21T07:25:57;101443.28;;;11.82;75.76
3122;BME280;1571;52.524;14.104;2023-04-21T07:28:26;101446.78;;;11.67;76.39
3122;BME280;1571;52.524;14.104;2023-04-21T07:30:55;101443.59;;;12.08;76.22
3122;BME280;1571;52.524;14.104;2023-04-21T07:33:23;101436.22;;;12.13;75.52
3122;BME280;1571;52.524;14.104;2023-04-21T07:35:51;101431.53;;;12.33;75.41
3122;BME280;1571;52.524;14.104;2023-04-21T07:38:20;101433.53;;;12.13;74.11
3122;BME280;1571;52.524;14.104;2023-04-21T07:40:48;101435.78;;;12.51;74.29
3122;BME280;1571;52.524;14.104;2023-04-21T07:43:16;101425.19;;;12.49;73.70
3122;BME280;1571;52.524;14.104;2023-04-21T07:45:47;101430.41;;;12.37;73.50
3122;BME280;1571;52.524;14.104;2023-04-21T07:48:15;101421.88;;;12.46;73.19
3122;BME280;1571;52.524;14.104;2023-04-21T07:50:43;101428.00;;;12.62;73.19
3122;BME280;1571;52.524;14.104;2023-04-21T07:53:11;101420.50;;;12.83;72.59
3122;BME280;1571;52.524;14.104;2023-04-21T07:55:39;101429.25;;;12.71;72.32
3122;BME280;1571;52.524;14.104;2023-04-21T07:58:08;101427.06;;;12.92;72.46
3122;BME280;1571;52.524;14.104;2023-04-21T08:00:37;101426.41;;;13.03;71.52
3122;BME280;1571;52.524;14.104;2023-04-21T08:03:06;101426.25;;;13.49;71.64
3122;BME280;1571;52.524;14.104;2023-04-21T08:05:35;101427.84;;;12.94;70.83
3122;BME280;1571;52.524;14.104;2023-04-21T08:08:07;101426.06;;;13.38;71.64
3122;BME280;1571;52.524;14.104;2023-04-21T08:10:35;101423.00;;;13.58;70.58
3122;BME280;1571;52.524;14.104;2023-04-21T08:13:04;101411.81;;;13.66;69.68
3122;BME280;1571;52.524;14.104;2023-04-21T08:15:32;101415.63;;;13.62;70.04
3122;BME280;1571;52.524;14.104;2023-04-21T08:18:01;101420.78;;;13.50;70.19
3122;BME280;1571;52.524;14.104;2023-04-21T08:20:31;101421.53;;;13.67;70.24
3122;BME280;1571;52.524;14.104;2023-04-21T08:22:59;101409.25;;;13.91;69.13
3122;BME280;1571;52.524;14.104;2023-04-21T08:25:27;101410.31;;;13.89;69.31
3122;BME280;1571;52.524;14.104;2023-04-21T08:27:55;101409.66;;;13.85;68.51
3122;BME280;1571;52.524;14.104;2023-04-21T08:30:27;101410.22;;;13.90;68.80
3122;BME280;1571;52.524;14.104;2023-04-21T08:32:55;101410.50;;;13.86;68.84
3122;BME280;1571;52.524;14.104;2023-04-21T08:35:24;101406.16;;;13.98;68.88
3122;BME280;1571;52.524;14.104;2023-04-21T08:37:54;101405.63;;;13.92;68.73
3122;BME280;1571;52.524;14.104;2023-04-21T08:40:26;101410.84;;;14.21;68.50
3122;BME280;1571;52.524;14.104;2023-04-21T08:42:59;101416.16;;;14.08;70.09
3122;BME280;1571;52.524;14.104;2023-04-21T08:45:27;101404.22;;;14.14;67.48
3122;BME280;1571;52.524;14.104;2023-04-21T08:47:58;101398.25;;;14.23;67.78
3122;BME280;1571;52.524;14.104;2023-04-21T08:50:28;101406.59;;;14.31;68.18
3122;BME280;1571;52.524;14.104;2023-04-21T08:52:57;101398.50;;;14.46;66.64
3122;BME280;1571;52.524;14.104;2023-04-21T08:55:28;101395.19;;;14.42;66.44
3122;BME280;1571;52.524;14.104;2023-04-21T08:57:56;101389.38;;;14.88;67.40
3122;BME280;1571;52.524;14.104;2023-04-21T09:00:24;101396.59;;;14.99;67.69
3122;BME280;1571;52.524;14.104;2023-04-21T09:02:54;101398.72;;;15.19;67.23
3122;BME280;1571;52.524;14.104;2023-04-21T09:05:29;101389.84;;;15.06;66.00
3122;BME280;1571;52.524;14.104;2023-04-21T09:08:08;101395.34;;;15.54;66.48
3122;BME280;1571;52.524;14.104;2023-04-21T09:10:43;101395.56;;;15.88;65.47
3122;BME280;1571;52.524;14.104;2023-04-21T09:13:12;101379.16;;;15.93;63.70
3122;BME280;1571;52.524;14.104;2023-04-21T09:15:43;101382.16;;;15.51;64.79
3122;BME280;1571;52.524;14.104;2023-04-21T09:18:12;101388.66;;;15.60;64.47
3122;BME280;1571;52.524;14.104;2023-04-21T09:20:41;101376.19;;;15.48;64.02
3122;BME280;1571;52.524;14.104;2023-04-21T09:23:12;101373.75;;;15.69;65.01
3122;BME280;1571;52.524;14.104;2023-04-21T09:25:42;101377.25;;;16.06;64.60
3122;BME280;1571;52.524;14.104;2023-04-21T09:28:12;101365.63;;;15.70;62.82
3122;BME280;1571;52.524;14.104;2023-04-21T09:30:41;101374.03;;;16.25;64.63
3122;BME280;1571;52.524;14.104;2023-04-21T09:33:14;101364.78;;;16.29;63.53
3122;BME280;1571;52.524;14.104;2023-04-21T09:36:00;101370.06;;;16.07;63.77
3122;BME280;1571;52.524;14.104;2023-04-21T09:38:31;101360.91;;;16.33;62.20
3122;BME280;1571;52.524;14.104;2023-04-21T09:40:59;101364.31;;;16.35;63.49
3122;BME280;1571;52.524;14.104;2023-04-21T09:43:27;101356.78;;;16.40;62.77
3122;BME280;1571;52.524;14.104;2023-04-21T09:45:57;101342.78;;;16.01;60.81
3122;BME280;1571;52.524;14.104;2023-04-21T09:48:28;101347.78;;;16.53;61.59
3122;BME280;1571;52.524;14.104;2023-04-21T09:50:59;101339.50;;;16.44;60.63
3122;BME280;1571;52.524;14.104;2023-04-21T09:53:52;101346.09;;;16.63;60.87
3122;BME280;1571;52.524;14.104;2023-04-21T09:56:23;101342.56;;;16.62;62.11
3122;BME280;1571;52.524;14.104;2023-04-21T09:58:53;101348.56;;;16.89;62.51
3122;BME280;1571;52.524;14.104;2023-04-21T10:01:25;101339.25;;;16.70;61.29
3122;BME280;1571;52.524;14.104;2023-04-21T10:03:54;101332.44;;;17.11;61.33
3122;BME280;1571;52.524;14.104;2023-04-21T10:06:23;101330.25;;;16.71;59.86
3122;BME280;1571;52.524;14.104;2023-04-21T10:08:53;101329.28;;;16.61;60.36
3122;BME280;1571;52.524;14.104;2023-04-21T10:11:24;101329.56;;;16.92;59.94
3122;BME280;1571;52.524;14.104;2023-04-21T10:13:53;101323.94;;;16.83;59.42
3122;BME280;1571;52.524;14.104;2023-04-21T10:16:21;101326.38;;;16.75;59.64
3122;BME280;1571;52.524;14.104;2023-04-21T10:18:49;101314.41;;;17.02;60.53
3122;BME280;1571;52.524;14.104;2023-04-21T10:21:19;101320.50;;;17.04;59.38
3122;BME280;1571;52.524;14.104;2023-04-21T10:23:50;101315.31;;;16.91;59.95
3122;BME280;1571;52.524;14.104;2023-04-21T10:26:22;101307.75;;;16.96;58.81
3122;BME280;1571;52.524;14.104;2023-04-21T10:28:53;101314.53;;;17.23;58.77
3122;BME280;1571;52.524;14.104;2023-04-21T10:31:24;101297.84;;;16.97;57.73
3122;BME280;1571;52.524;14.104;2023-04-21T10:37:13;101297.75;;;17.42;57.69
3122;BME280;1571;52.524;14.104;2023-04-21T10:39:45;101292.38;;;17.42;56.79
3122;BME280;1571;52.524;14.104;2023-04-21T10:42:20;101285.28;;;17.52;56.96
3122;BME280;1571;52.524;14.104;2023-04-21T10:44:59;101292.13;;;17.45;57.29
3122;BME280;1571;52.524;14.104;2023-04-21T10:47:29;101296.09;;;17.94;57.39
3122;BME280;1571;52.524;14.104;2023-04-21T10:50:14;101280.16;;;17.93;57.27
3122;BME280;1571;52.524;14.104;2023-04-21T10:52:44;101280.56;;;17.77;56.13
3122;BME280;1571;52.524;14.104;2023-04-21T10:55:12;101273.00;;;18.03;55.86
3122;BME280;1571;52.524;14.104;2023-04-21T10:57:44;101272.22;;;17.91;55.78
3122;BME280;1571;52.524;14.104;2023-04-21T11:00:17;101280.19;;;18.02;56.19
3122;BME280;1571;52.524;14.104;2023-04-21T11:02:54;101260.66;;;18.00;55.08
3122;BME280;1571;52.524;14.104;2023-04-21T11:05:32;101250.19;;;17.97;53.93
3122;BME280;1571;52.524;14.104;2023-04-21T11:08:06;101243.69;;;18.21;54.39
3122;BME280;1571;52.524;14.104;2023-04-21T11:10:46;101245.47;;;18.41;54.55
3122;BME280;1571;52.524;14.104;2023-04-21T11:13:16;101223.91;;;18.22;51.76
3122;BME280;1571;52.524;14.104;2023-04-21T11:15:58;101220.94;;;18.25;51.77
3122;BME280;1571;52.524;14.104;2023-04-21T11:18:36;101219.25;;;18.24;52.48
3122;BME280;1571;52.524;14.104;2023-04-21T11:21:08;101211.00;;;18.16;51.30
3122;BME280;1571;52.524;14.104;2023-04-21T11:23:39;101205.94;;;18.53;50.70
3122;BME280;1571;52.524;14.104;2023-04-21T11:26:08;101192.44;;;18.43;48.49
3122;BME280;1571;52.524;14.104;2023-04-21T11:28:39;101194.78;;;18.58;49.35
3122;BME280;1571;52.524;14.104;2023-04-21T11:31:07;101192.53;;;18.72;48.62
3122;BME280;1571;52.524;14.104;2023-04-21T11:33:35;101186.28;;;18.62;48.78
3122;BME280;1571;52.524;14.104;2023-04-21T11:36:05;101177.63;;;18.59;48.84
3122;BME280;1571;52.524;14.104;2023-04-21T11:38:38;101185.94;;;18.86;49.64
3122;BME280;1571;52.524;14.104;2023-04-21T11:41:07;101184.88;;;18.68;48.35
3122;BME280;1571;52.524;14.104;2023-04-21T11:43:38;101176.09;;;18.66;48.14
3122;BME280;1571;52.524;14.104;2023-04-21T11:46:11;101179.00;;;18.93;49.26
3122;BME280;1571;52.524;14.104;2023-04-21T11:48:39;101174.34;;;18.55;47.59
3122;BME280;1571;52.524;14.104;2023-04-21T11:51:13;101169.56;;;18.59;48.05
3122;BME280;1571;52.524;14.104;2023-04-21T11:53:42;101167.25;;;18.95;47.79
3122;BME280;1571;52.524;14.104;2023-04-21T11:56:10;101159.13;;;18.75;47.56
3122;BME280;1571;52.524;14.104;2023-04-21T11:58:40;101158.47;;;18.92;48.01
3122;BME280;1571;52.524;14.104;2023-04-21T12:01:08;101148.13;;;18.78;47.19
3122;BME280;1571;52.524;14.104;2023-04-21T12:03:37;101146.81;;;18.63;47.03
3122;BME280;1571;52.524;14.104;2023-04-21T12:06:06;101141.63;;;19.20;47.50
3122;BME280;1571;52.524;14.104;2023-04-21T12:08:34;101133.81;;;18.78;46.00
3122;BME280;1571;52.524;14.104;2023-04-21T12:11:03;101148.06;;;18.68;46.85
3122;BME280;1571;52.524;14.104;2023-04-21T12:13:31;101134.28;;;18.92;46.55
3122;BME280;1571;52.524;14.104;2023-04-21T12:16:02;101124.34;;;18.93;45.67
3122;BME280;1571;52.524;14.104;2023-04-21T12:18:31;101128.81;;;18.63;46.46
3122;BME280;1571;52.524;14.104;2023-04-21T12:21:02;101126.63;;;18.98;46.37
3122;BME280;1571;52.524;14.104;2023-04-21T12:23:31;101119.25;;;19.00;45.53
3122;BME280;1571;52.524;14.104;2023-04-21T12:25:59;101109.72;;;18.66;45.48
3122;BME280;1571;52.524;14.104;2023-04-21T12:28:28;101118.84;;;19.14;46.34
3122;BME280;1571;52.524;14.104;2023-04-21T12:30:57;101112.47;;;18.96;46.04
3122;BME280;1571;52.524;14.104;2023-04-21T12:33:26;101096.34;;;19.05;45.19
3122;BME280;1571;52.524;14.104;2023-04-21T12:35:55;101099.72;;;18.78;45.06
3122;BME280;1571;52.524;14.104;2023-04-21T12:38:23;101101.44;;;18.99;45.30
3122;BME280;1571;52.524;14.104;2023-04-21T12:40:52;101084.97;;;18.82;44.31
3122;BME280;1571;52.524;14.104;2023-04-21T12:43:20;101092.09;;;18.83;44.78
3122;BME280;1571;52.524;14.104;2023-04-21T12:45:48;101098.16;;;19.24;46.86
3122;BME280;1571;52.524;14.104;2023-04-21T12:48:18;101092.94;;;18.84;44.39
3122;BME280;1571;52.524;14.104;2023-04-21T12:50:48;101089.09;;;18.86;44.75
3122;BME280;1571;52.524;14.104;2023-04-21T12:53:16;101091.78;;;19.16;45.36
3122;BME280;1571;52.524;14.104;2023-04-21T12:55:44;101078.16;;;18.68;43.70
3122;BME280;1571;52.524;14.104;2023-04-21T12:58:30;101077.72;;;18.73;43.95
3122;BME280;1571;52.524;14.104;2023-04-21T13:00:58;101075.94;;;19.03;45.06
3122;BME280;1571;52.524;14.104;2023-04-21T13:03:26;101081.63;;;18.80;44.15
3122;BME280;1571;52.524;14.104;2023-04-21T13:05:57;101070.38;;;18.75;44.25
3122;BME280;1571;52.524;14.104;2023-04-21T13:08:25;101073.66;;;18.69;44.22
3122;BME280;1571;52.524;14.104;2023-04-21T13:10:53;101069.38;;;18.57;44.43
3122;BME280;1571;52.524;14.104;2023-04-21T13:13:21;101069.16;;;18.79;44.32
3122;BME280;1571;52.524;14.104;2023-04-21T13:15:49;101060.03;;;18.70;44.02
3122;BME280;1571;52.524;14.104;2023-04-21T13:18:18;101064.88;;;18.77;44.02